Terminal Aerodrome Forecast
Issued by NWS Grand Forks, ND

Home | Current Version | Previous Version | Graphics & Text | Print | Product List | Glossary On
Versions: 1 2 3 4 5 6 7 8 9 10 11 12 13 14 15 16 17 18 19
000
FTUS43 KFGF 231100
TAFFAR
TAF
KFAR 231131Z 2312/2412 36012KT 5SM -RASN OVC015
      TEMPO 2312/2315 2SM -SN BR BKN004
     FM231500 35015KT 5SM BR BKN004
      TEMPO 2315/2317 3SM -RASN BR OVC012
     FM231800 35017KT 4SM BR OVC004
     FM240000 33017KT P6SM OVC004=

USA.gov is the U.S. government's official web portal to all federal, state and local government web resources and services.